sensor_id;sensor_type;location;lat;lon;timestamp;pressure;altitude;pressure_sealevel;temperature;humidity
29941;BME280;16801;53.562;10.038;2023-07-08T00:00:37;102124.41;;;20.40;65.53
29941;BME280;16801;53.562;10.038;2023-07-08T00:03:58;102113.31;;;20.42;65.87
29941;BME280;16801;53.562;10.038;2023-07-08T00:07:20;102116.03;;;20.34;65.63
29941;BME280;16801;53.562;10.038;2023-07-08T00:10:43;102110.38;;;20.27;66.21
29941;BME280;16801;53.562;10.038;2023-07-08T00:14:04;102103.53;;;20.23;66.56
29941;BME280;16801;53.562;10.038;2023-07-08T00:17:25;102109.25;;;20.04;66.87
29941;BME280;16801;53.562;10.038;2023-07-08T00:20:48;102097.50;;;20.20;67.21
29941;BME280;16801;53.562;10.038;2023-07-08T00:24:09;102102.25;;;20.10;67.28
29941;BME280;16801;53.562;10.038;2023-07-08T00:27:31;102104.47;;;20.06;67.24
29941;BME280;16801;53.562;10.038;2023-07-08T00:30:52;102094.53;;;20.05;67.08
29941;BME280;16801;53.562;10.038;2023-07-08T00:34:14;102099.00;;;20.06;67.46
29941;BME280;16801;53.562;10.038;2023-07-08T00:37:35;102095.22;;;19.99;67.65
29941;BME280;16801;53.562;10.038;2023-07-08T00:40:59;102099.31;;;19.95;67.57
29941;BME280;16801;53.562;10.038;2023-07-08T00:44:26;102100.47;;;19.84;67.84
29941;BME280;16801;53.562;10.038;2023-07-08T00:47:47;102099.59;;;19.84;68.02
29941;BME280;16801;53.562;10.038;2023-07-08T00:51:10;102101.00;;;19.88;67.97
29941;BME280;16801;53.562;10.038;2023-07-08T00:54:31;102097.56;;;19.86;68.15
29941;BME280;16801;53.562;10.038;2023-07-08T00:57:52;102091.88;;;19.71;68.64
29941;BME280;16801;53.562;10.038;2023-07-08T01:01:14;102078.66;;;19.59;68.80
29941;BME280;16801;53.562;10.038;2023-07-08T01:04:39;102082.91;;;19.53;69.13
29941;BME280;16801;53.562;10.038;2023-07-08T01:08:05;102085.69;;;19.61;69.21
29941;BME280;16801;53.562;10.038;2023-07-08T01:11:26;102085.47;;;19.55;69.41
29941;BME280;16801;53.562;10.038;2023-07-08T01:14:48;102087.50;;;19.45;69.84
29941;BME280;16801;53.562;10.038;2023-07-08T01:18:11;102075.41;;;19.30;70.29
29941;BME280;16801;53.562;10.038;2023-07-08T01:21:35;102082.03;;;19.45;70.23
29941;BME280;16801;53.562;10.038;2023-07-08T01:24:58;102073.63;;;19.38;69.94
29941;BME280;16801;53.562;10.038;2023-07-08T01:28:24;102080.28;;;19.36;70.05
29941;BME280;16801;53.562;10.038;2023-07-08T01:31:45;102077.38;;;19.37;70.58
29941;BME280;16801;53.562;10.038;2023-07-08T01:35:09;102066.09;;;19.40;70.22
29941;BME280;16801;53.562;10.038;2023-07-08T01:38:33;102063.19;;;19.34;70.75
29941;BME280;16801;53.562;10.038;2023-07-08T01:41:56;102063.53;;;19.39;70.54
29941;BME280;16801;53.562;10.038;2023-07-08T01:45:21;102065.81;;;19.26;70.72
29941;BME280;16801;53.562;10.038;2023-07-08T01:48:46;102062.34;;;19.15;71.22
29941;BME280;16801;53.562;10.038;2023-07-08T01:52:10;102071.59;;;19.14;71.38
29941;BME280;16801;53.562;10.038;2023-07-08T01:55:32;102068.69;;;18.90;71.33
29941;BME280;16801;53.562;10.038;2023-07-08T01:58:54;102069.06;;;18.70;71.46
29941;BME280;16801;53.562;10.038;2023-07-08T02:02:16;102068.69;;;18.90;71.63
29941;BME280;16801;53.562;10.038;2023-07-08T02:05:37;102069.94;;;18.96;71.72
29941;BME280;16801;53.562;10.038;2023-07-08T02:08:57;102071.00;;;19.03;71.29
29941;BME280;16801;53.562;10.038;2023-07-08T02:12:18;102061.75;;;18.96;71.53
29941;BME280;16801;53.562;10.038;2023-07-08T02:15:41;102055.94;;;18.99;71.58
29941;BME280;16801;53.562;10.038;2023-07-08T02:19:02;102058.19;;;18.78;72.15
29941;BME280;16801;53.562;10.038;2023-07-08T02:22:24;102059.72;;;18.72;72.23
29941;BME280;16801;53.562;10.038;2023-07-08T02:25:50;102059.66;;;18.64;72.46
29941;BME280;16801;53.562;10.038;2023-07-08T02:29:12;102059.31;;;18.67;72.60
29941;BME280;16801;53.562;10.038;2023-07-08T02:32:35;102056.44;;;18.69;72.70
29941;BME280;16801;53.562;10.038;2023-07-08T02:36:00;102052.44;;;18.81;72.56
29941;BME280;16801;53.562;10.038;2023-07-08T02:39:21;102058.19;;;18.78;72.63
29941;BME280;16801;53.562;10.038;2023-07-08T02:42:42;102059.19;;;18.69;72.55
29941;BME280;16801;53.562;10.038;2023-07-08T02:46:04;102055.66;;;18.59;72.71
29941;BME280;16801;53.562;10.038;2023-07-08T02:49:26;102062.63;;;18.53;73.08
29941;BME280;16801;53.562;10.038;2023-07-08T02:52:47;102064.88;;;18.58;73.31
29941;BME280;16801;53.562;10.038;2023-07-08T02:56:08;102068.72;;;18.65;72.95
29941;BME280;16801;53.562;10.038;2023-07-08T02:59:29;102071.28;;;18.66;72.49
29941;BME280;16801;53.562;10.038;2023-07-08T03:02:49;102062.84;;;18.60;72.90
29941;BME280;16801;53.562;10.038;2023-07-08T03:06:12;102074.41;;;18.54;72.82
29941;BME280;16801;53.562;10.038;2023-07-08T03:09:33;102071.22;;;18.58;72.84
29941;BME280;16801;53.562;10.038;2023-07-08T03:12:54;102070.88;;;18.61;72.86
29941;BME280;16801;53.562;10.038;2023-07-08T03:16:16;102065.84;;;18.49;72.93
29941;BME280;16801;53.562;10.038;2023-07-08T03:19:37;102072.94;;;18.42;73.19
29941;BME280;16801;53.562;10.038;2023-07-08T03:22:59;102062.56;;;18.45;73.57
29941;BME280;16801;53.562;10.038;2023-07-08T03:26:22;102066.53;;;18.33;73.45
29941;BME280;16801;53.562;10.038;2023-07-08T03:29:44;102066.69;;;18.49;73.36
29941;BME280;16801;53.562;10.038;2023-07-08T03:33:05;102074.66;;;18.60;73.45
29941;BME280;16801;53.562;10.038;2023-07-08T03:36:26;102072.06;;;18.59;73.25
29941;BME280;16801;53.562;10.038;2023-07-08T03:39:49;102063.31;;;18.55;73.13
29941;BME280;16801;53.562;10.038;2023-07-08T03:43:10;102062.25;;;18.74;72.95
29941;BME280;16801;53.562;10.038;2023-07-08T03:46:31;102055.94;;;18.73;72.53
29941;BME280;16801;53.562;10.038;2023-07-08T03:49:52;102053.66;;;18.61;72.69
29941;BME280;16801;53.562;10.038;2023-07-08T03:53:14;102060.59;;;18.55;72.85
29941;BME280;16801;53.562;10.038;2023-07-08T03:56:37;102055.69;;;18.84;72.21
29941;BME280;16801;53.562;10.038;2023-07-08T03:59:58;102062.06;;;18.93;71.69
29941;BME280;16801;53.562;10.038;2023-07-08T04:03:20;102056.97;;;18.98;71.06
29941;BME280;16801;53.562;10.038;2023-07-08T04:06:40;102053.56;;;18.96;71.57
29941;BME280;16801;53.562;10.038;2023-07-08T04:10:01;102054.00;;;19.17;70.92
29941;BME280;16801;53.562;10.038;2023-07-08T04:13:24;102052.84;;;19.28;70.01
29941;BME280;16801;53.562;10.038;2023-07-08T04:16:48;102055.81;;;19.34;69.44
29941;BME280;16801;53.562;10.038;2023-07-08T04:20:13;102053.78;;;19.36;69.07
29941;BME280;16801;53.562;10.038;2023-07-08T04:23:34;102057.22;;;19.46;68.80
29941;BME280;16801;53.562;10.038;2023-07-08T04:26:56;102061.03;;;19.53;68.86
29941;BME280;16801;53.562;10.038;2023-07-08T04:30:22;102055.53;;;19.45;68.49
29941;BME280;16801;53.562;10.038;2023-07-08T04:33:44;102052.50;;;19.56;67.91
29941;BME280;16801;53.562;10.038;2023-07-08T04:37:05;102050.00;;;19.71;67.76
29941;BME280;16801;53.562;10.038;2023-07-08T04:40:26;102050.00;;;19.79;67.42
29941;BME280;16801;53.562;10.038;2023-07-08T04:43:47;102053.56;;;19.71;67.42
29941;BME280;16801;53.562;10.038;2023-07-08T04:47:13;102051.19;;;19.76;67.07
29941;BME280;16801;53.562;10.038;2023-07-08T04:50:34;102052.91;;;19.77;67.32
29941;BME280;16801;53.562;10.038;2023-07-08T04:53:55;102053.94;;;19.84;66.96
29941;BME280;16801;53.562;10.038;2023-07-08T04:57:16;102052.44;;;20.06;66.83
29941;BME280;16801;53.562;10.038;2023-07-08T05:00:37;102060.31;;;20.17;66.14
29941;BME280;16801;53.562;10.038;2023-07-08T05:03:59;102050.63;;;20.31;65.77
29941;BME280;16801;53.562;10.038;2023-07-08T05:07:20;102053.72;;;20.36;65.26
29941;BME280;16801;53.562;10.038;2023-07-08T05:10:41;102043.09;;;20.41;64.82
29941;BME280;16801;53.562;10.038;2023-07-08T05:14:03;102043.59;;;20.52;64.77
29941;BME280;16801;53.562;10.038;2023-07-08T05:17:24;102046.31;;;20.68;64.38
29941;BME280;16801;53.562;10.038;2023-07-08T05:20:51;102049.72;;;20.87;64.26
29941;BME280;16801;53.562;10.038;2023-07-08T05:24:12;102045.94;;;20.96;63.60
29941;BME280;16801;53.562;10.038;2023-07-08T05:27:32;102043.03;;;20.89;63.39
29941;BME280;16801;53.562;10.038;2023-07-08T05:30:53;102044.91;;;20.89;63.31
29941;BME280;16801;53.562;10.038;2023-07-08T05:34:15;102044.06;;;20.96;63.30
29941;BME280;16801;53.562;10.038;2023-07-08T05:37:37;102041.25;;;21.20;63.13
29941;BME280;16801;53.562;10.038;2023-07-08T05:40:59;102046.78;;;21.12;62.56
29941;BME280;16801;53.562;10.038;2023-07-08T05:44:20;102042.56;;;21.32;62.14
29941;BME280;16801;53.562;10.038;2023-07-08T05:47:42;102051.41;;;21.59;61.79
29941;BME280;16801;53.562;10.038;2023-07-08T05:51:02;102044.59;;;21.77;61.40
29941;BME280;16801;53.562;10.038;2023-07-08T05:54:24;102045.13;;;21.73;60.76
29941;BME280;16801;53.562;10.038;2023-07-08T05:57:45;102037.16;;;21.94;60.96
29941;BME280;16801;53.562;10.038;2023-07-08T06:01:06;102038.34;;;21.91;60.03
29941;BME280;16801;53.562;10.038;2023-07-08T06:04:28;102039.59;;;21.81;59.49
29941;BME280;16801;53.562;10.038;2023-07-08T06:07:49;102036.41;;;22.00;60.26
29941;BME280;16801;53.562;10.038;2023-07-08T06:11:11;102036.00;;;22.11;59.43
29941;BME280;16801;53.562;10.038;2023-07-08T06:14:32;102044.00;;;22.20;58.89
29941;BME280;16801;53.562;10.038;2023-07-08T06:17:52;102041.31;;;22.12;58.86
29941;BME280;16801;53.562;10.038;2023-07-08T06:21:13;102050.22;;;22.14;59.72
29941;BME280;16801;53.562;10.038;2023-07-08T06:24:35;102049.28;;;22.45;59.54
29941;BME280;16801;53.562;10.038;2023-07-08T06:27:59;102042.44;;;22.41;58.79
29941;BME280;16801;53.562;10.038;2023-07-08T06:31:20;102041.66;;;22.32;58.37
29941;BME280;16801;53.562;10.038;2023-07-08T06:34:41;102042.75;;;22.46;58.83
29941;BME280;16801;53.562;10.038;2023-07-08T06:38:02;102043.13;;;22.65;58.63
29941;BME280;16801;53.562;10.038;2023-07-08T06:41:23;102044.34;;;22.63;57.87
29941;BME280;16801;53.562;10.038;2023-07-08T06:44:45;102040.31;;;22.73;58.29
29941;BME280;16801;53.562;10.038;2023-07-08T06:48:10;102040.41;;;22.80;58.28
29941;BME280;16801;53.562;10.038;2023-07-08T06:51:31;102033.28;;;22.85;58.07
29941;BME280;16801;53.562;10.038;2023-07-08T06:54:51;102034.44;;;22.91;57.44
29941;BME280;16801;53.562;10.038;2023-07-08T06:58:12;102040.06;;;22.60;56.99
29941;BME280;16801;53.562;10.038;2023-07-08T07:01:34;102039.25;;;22.89;57.50
29941;BME280;16801;53.562;10.038;2023-07-08T07:04:56;102037.59;;;23.02;56.46
29941;BME280;16801;53.562;10.038;2023-07-08T07:08:17;102037.50;;;23.40;56.73
29941;BME280;16801;53.562;10.038;2023-07-08T07:11:38;102031.31;;;23.52;56.06
29941;BME280;16801;53.562;10.038;2023-07-08T07:14:58;102025.72;;;23.46;56.57
29941;BME280;16801;53.562;10.038;2023-07-08T07:18:21;102016.50;;;23.53;56.20
29941;BME280;16801;53.562;10.038;2023-07-08T07:21:42;102018.09;;;23.62;55.89
29941;BME280;16801;53.562;10.038;2023-07-08T07:25:03;102017.78;;;23.72;56.03
29941;BME280;16801;53.562;10.038;2023-07-08T07:28:24;102022.34;;;23.79;55.98
29941;BME280;16801;53.562;10.038;2023-07-08T07:31:46;102022.94;;;23.96;55.70
29941;BME280;16801;53.562;10.038;2023-07-08T07:35:10;102027.66;;;24.02;55.74
29941;BME280;16801;53.562;10.038;2023-07-08T07:38:33;102018.63;;;24.08;55.69
29941;BME280;16801;53.562;10.038;2023-07-08T07:41:54;102022.97;;;24.17;55.22
29941;BME280;16801;53.562;10.038;2023-07-08T07:45:15;102020.31;;;24.30;55.05
29941;BME280;16801;53.562;10.038;2023-07-08T07:48:36;102018.22;;;24.32;55.03
29941;BME280;16801;53.562;10.038;2023-07-08T07:51:59;102006.38;;;24.32;55.26
29941;BME280;16801;53.562;10.038;2023-07-08T07:55:19;102016.97;;;24.56;54.60
29941;BME280;16801;53.562;10.038;2023-07-08T07:58:40;102013.97;;;24.79;54.43
29941;BME280;16801;53.562;10.038;2023-07-08T08:02:01;102013.25;;;24.70;54.30
29941;BME280;16801;53.562;10.038;2023-07-08T08:05:22;102011.81;;;24.74;53.60
29941;BME280;16801;53.562;10.038;2023-07-08T08:08:44;102008.16;;;24.67;53.98
29941;BME280;16801;53.562;10.038;2023-07-08T08:12:07;102004.97;;;24.70;53.13
29941;BME280;16801;53.562;10.038;2023-07-08T08:15:29;102002.19;;;24.91;53.42
29941;BME280;16801;53.562;10.038;2023-07-08T08:18:51;101998.22;;;25.00;52.22
29941;BME280;16801;53.562;10.038;2023-07-08T08:22:12;102003.81;;;25.13;51.96
29941;BME280;16801;53.562;10.038;2023-07-08T08:25:34;102010.50;;;25.32;51.64
29941;BME280;16801;53.562;10.038;2023-07-08T08:28:56;102012.91;;;25.42;52.39
29941;BME280;16801;53.562;10.038;2023-07-08T08:32:16;102013.19;;;25.60;52.82
29941;BME280;16801;53.562;10.038;2023-07-08T08:35:37;102005.13;;;25.65;52.08
29941;BME280;16801;53.562;10.038;2023-07-08T08:38:58;102007.34;;;25.82;51.80
29941;BME280;16801;53.562;10.038;2023-07-08T08:42:25;102009.44;;;25.87;52.66
29941;BME280;16801;53.562;10.038;2023-07-08T08:45:52;102007.34;;;26.02;51.73
29941;BME280;16801;53.562;10.038;2023-07-08T08:49:21;102012.72;;;26.10;51.30
29941;BME280;16801;53.562;10.038;2023-07-08T08:52:43;102009.50;;;26.06;51.33
29941;BME280;16801;53.562;10.038;2023-07-08T08:56:09;102014.88;;;26.21;50.94
29941;BME280;16801;53.562;10.038;2023-07-08T08:59:42;102009.97;;;26.23;52.04
29941;BME280;16801;53.562;10.038;2023-07-08T09:03:11;102001.25;;;26.52;51.31
29941;BME280;16801;53.562;10.038;2023-07-08T09:06:34;101997.63;;;26.71;51.90
29941;BME280;16801;53.562;10.038;2023-07-08T09:10:02;101995.28;;;26.68;51.00
29941;BME280;16801;53.562;10.038;2023-07-08T09:13:32;101996.59;;;26.79;50.16
29941;BME280;16801;53.562;10.038;2023-07-08T09:17:00;101988.50;;;26.90;50.31
29941;BME280;16801;53.562;10.038;2023-07-08T09:20:27;101986.13;;;26.94;50.24
29941;BME280;16801;53.562;10.038;2023-07-08T09:23:50;101999.13;;;26.67;48.85
29941;BME280;16801;53.562;10.038;2023-07-08T09:27:14;101997.22;;;26.81;49.92
29941;BME280;16801;53.562;10.038;2023-07-08T09:30:35;101999.16;;;26.80;49.85
29941;BME280;16801;53.562;10.038;2023-07-08T09:34:09;101986.50;;;27.11;49.50
29941;BME280;16801;53.562;10.038;2023-07-08T09:37:32;101987.13;;;27.13;50.04
29941;BME280;16801;53.562;10.038;2023-07-08T09:40:54;101992.44;;;27.21;49.10
29941;BME280;16801;53.562;10.038;2023-07-08T09:44:22;101979.22;;;27.23;49.61
29941;BME280;16801;53.562;10.038;2023-07-08T09:47:45;101983.91;;;27.35;49.72
29941;BME280;16801;53.562;10.038;2023-07-08T09:51:08;101982.59;;;27.38;49.17
29941;BME280;16801;53.562;10.038;2023-07-08T09:54:29;101979.63;;;27.39;49.22
29941;BME280;16801;53.562;10.038;2023-07-08T09:57:53;101981.50;;;27.45;50.44
29941;BME280;16801;53.562;10.038;2023-07-08T10:01:21;101975.63;;;27.66;49.15
29941;BME280;16801;53.562;10.038;2023-07-08T10:04:44;101980.38;;;27.59;48.97
29941;BME280;16801;53.562;10.038;2023-07-08T10:08:14;101978.22;;;27.68;49.32
29941;BME280;16801;53.562;10.038;2023-07-08T10:11:42;101968.06;;;27.87;48.77
29941;BME280;16801;53.562;10.038;2023-07-08T10:15:12;101961.13;;;27.71;49.17
29941;BME280;16801;53.562;10.038;2023-07-08T10:18:35;101965.84;;;28.02;49.23
29941;BME280;16801;53.562;10.038;2023-07-08T10:22:12;101965.81;;;28.08;48.27
29941;BME280;16801;53.562;10.038;2023-07-08T10:25:45;101967.25;;;28.17;48.37
29941;BME280;16801;53.562;10.038;2023-07-08T10:29:16;101967.00;;;28.19;48.50
29941;BME280;16801;53.562;10.038;2023-07-08T10:32:44;101965.47;;;28.23;47.66
29941;BME280;16801;53.562;10.038;2023-07-08T10:36:21;101963.13;;;27.95;47.57
29941;BME280;16801;53.562;10.038;2023-07-08T10:39:55;101946.72;;;28.18;47.49
29941;BME280;16801;53.562;10.038;2023-07-08T10:43:44;101951.22;;;28.44;47.52
29941;BME280;16801;53.562;10.038;2023-07-08T10:47:15;101962.06;;;28.45;47.02
29941;BME280;16801;53.562;10.038;2023-07-08T10:50:56;101954.72;;;28.08;45.72
29941;BME280;16801;53.562;10.038;2023-07-08T10:54:33;101950.91;;;28.59;46.66
29941;BME280;16801;53.562;10.038;2023-07-08T10:58:14;101950.53;;;28.73;48.02
29941;BME280;16801;53.562;10.038;2023-07-08T11:01:51;101960.78;;;28.73;46.21
29941;BME280;16801;53.562;10.038;2023-07-08T11:05:25;101952.63;;;28.78;45.23
29941;BME280;16801;53.562;10.038;2023-07-08T11:08:54;101946.16;;;28.84;44.84
29941;BME280;16801;53.562;10.038;2023-07-08T11:12:25;101939.81;;;29.13;45.17
29941;BME280;16801;53.562;10.038;2023-07-08T11:15:52;101948.69;;;29.40;45.81
29941;BME280;16801;53.562;10.038;2023-07-08T11:19:19;101943.81;;;29.53;43.70
29941;BME280;16801;53.562;10.038;2023-07-08T11:22:47;101931.13;;;29.75;44.30
29941;BME280;16801;53.562;10.038;2023-07-08T11:26:16;101941.28;;;29.81;44.23
29941;BME280;16801;53.562;10.038;2023-07-08T11:29:42;101945.00;;;30.05;43.19
29941;BME280;16801;53.562;10.038;2023-07-08T11:33:09;101941.75;;;30.20;43.22
29941;BME280;16801;53.562;10.038;2023-07-08T11:36:33;101938.78;;;30.44;42.99
29941;BME280;16801;53.562;10.038;2023-07-08T11:39:57;101939.28;;;30.41;41.85
29941;BME280;16801;53.562;10.038;2023-07-08T11:43:20;101931.41;;;30.38;41.83
29941;BME280;16801;53.562;10.038;2023-07-08T11:46:53;101933.94;;;30.63;42.60
29941;BME280;16801;53.562;10.038;2023-07-08T11:50:20;101926.19;;;30.76;42.46
29941;BME280;16801;53.562;10.038;2023-07-08T11:53:49;101920.38;;;30.90;42.71
29941;BME280;16801;53.562;10.038;2023-07-08T11:57:17;101919.00;;;31.15;41.56
29941;BME280;16801;53.562;10.038;2023-07-08T12:00:40;101912.00;;;31.01;41.43
29941;BME280;16801;53.562;10.038;2023-07-08T12:04:17;101918.94;;;30.52;39.87
29941;BME280;16801;53.562;10.038;2023-07-08T12:07:41;101914.16;;;31.11;40.85
29941;BME280;16801;53.562;10.038;2023-07-08T12:11:10;101913.47;;;31.32;41.01
29941;BME280;16801;53.562;10.038;2023-07-08T12:14:32;101905.03;;;31.27;40.04
29941;BME280;16801;53.562;10.038;2023-07-08T12:17:55;101903.66;;;31.69;40.78
29941;BME280;16801;53.562;10.038;2023-07-08T12:21:16;101904.84;;;31.73;39.81
29941;BME280;16801;53.562;10.038;2023-07-08T12:24:37;101902.00;;;31.85;40.38
29941;BME280;16801;53.562;10.038;2023-07-08T12:28:00;101907.94;;;32.05;39.61
29941;BME280;16801;53.562;10.038;2023-07-08T12:31:22;101903.47;;;32.04;39.49
29941;BME280;16801;53.562;10.038;2023-07-08T12:34:44;101891.78;;;32.23;39.35
29941;BME280;16801;53.562;10.038;2023-07-08T12:38:13;101890.09;;;31.89;39.40
29941;BME280;16801;53.562;10.038;2023-07-08T12:41:38;101894.09;;;31.93;38.53
29941;BME280;16801;53.562;10.038;2023-07-08T12:45:00;101902.28;;;32.33;38.85
29941;BME280;16801;53.562;10.038;2023-07-08T12:48:21;101893.94;;;32.50;38.32
29941;BME280;16801;53.562;10.038;2023-07-08T12:51:43;101884.59;;;32.82;39.14
29941;BME280;16801;53.562;10.038;2023-07-08T12:55:04;101884.00;;;32.59;37.93
29941;BME280;16801;53.562;10.038;2023-07-08T12:58:28;101880.28;;;32.37;37.64
29941;BME280;16801;53.562;10.038;2023-07-08T13:01:52;101881.50;;;32.79;37.08
29941;BME280;16801;53.562;10.038;2023-07-08T13:05:13;101880.09;;;33.20;37.07
29941;BME280;16801;53.562;10.038;2023-07-08T13:08:35;101882.03;;;32.43;36.53
29941;BME280;16801;53.562;10.038;2023-07-08T13:12:02;101877.16;;;33.10;37.19
29941;BME280;16801;53.562;10.038;2023-07-08T13:15:28;101869.97;;;33.62;36.85
29941;BME280;16801;53.562;10.038;2023-07-08T13:18:52;101871.38;;;34.28;35.65
29941;BME280;16801;53.562;10.038;2023-07-08T13:22:16;101870.41;;;35.53;35.08
29941;BME280;16801;53.562;10.038;2023-07-08T13:25:38;101869.75;;;36.92;32.05
29941;BME280;16801;53.562;10.038;2023-07-08T13:29:00;101860.03;;;38.39;31.31
29941;BME280;16801;53.562;10.038;2023-07-08T13:32:29;101855.78;;;39.36;29.59
29941;BME280;16801;53.562;10.038;2023-07-08T13:35:52;101856.50;;;38.52;29.29
29941;BME280;16801;53.562;10.038;2023-07-08T13:39:18;101862.06;;;38.86;28.68
29941;BME280;16801;53.562;10.038;2023-07-08T13:42:46;101856.34;;;38.91;29.12
29941;BME280;16801;53.562;10.038;2023-07-08T13:46:28;101857.22;;;39.34;28.06
29941;BME280;16801;53.562;10.038;2023-07-08T13:49:54;101852.63;;;38.95;29.04
29941;BME280;16801;53.562;10.038;2023-07-08T13:53:21;101855.72;;;38.99;28.89
29941;BME280;16801;53.562;10.038;2023-07-08T13:56:43;101851.81;;;38.95;29.39
29941;BME280;16801;53.562;10.038;2023-07-08T14:00:05;101849.31;;;38.07;29.95
29941;BME280;16801;53.562;10.038;2023-07-08T14:03:31;101846.78;;;37.33;29.92
29941;BME280;16801;53.562;10.038;2023-07-08T14:06:52;101836.06;;;36.71;30.84
29941;BME280;16801;53.562;10.038;2023-07-08T14:10:14;101852.13;;;36.56;31.12
29941;BME280;16801;53.562;10.038;2023-07-08T14:13:36;101844.84;;;36.20;31.49
29941;BME280;16801;53.562;10.038;2023-07-08T14:16:56;101846.25;;;35.72;32.20
29941;BME280;16801;53.562;10.038;2023-07-08T14:20:18;101839.50;;;35.68;32.41
29941;BME280;16801;53.562;10.038;2023-07-08T14:23:39;101841.34;;;35.07;32.33
29941;BME280;16801;53.562;10.038;2023-07-08T14:27:01;101844.19;;;35.27;32.43
29941;BME280;16801;53.562;10.038;2023-07-08T14:30:21;101836.88;;;35.26;32.94
29941;BME280;16801;53.562;10.038;2023-07-08T14:33:42;101833.75;;;35.02;32.62
29941;BME280;16801;53.562;10.038;2023-07-08T14:37:07;101833.78;;;35.12;32.71
29941;BME280;16801;53.562;10.038;2023-07-08T14:40:34;101820.88;;;35.06;33.15
29941;BME280;16801;53.562;10.038;2023-07-08T14:43:57;101830.03;;;34.92;32.79
29941;BME280;16801;53.562;10.038;2023-07-08T14:47:19;101832.34;;;35.00;32.54
29941;BME280;16801;53.562;10.038;2023-07-08T14:50:40;101823.78;;;34.75;33.19
29941;BME280;16801;53.562;10.038;2023-07-08T14:54:01;101819.94;;;34.86;32.39
29941;BME280;16801;53.562;10.038;2023-07-08T14:57:28;101828.16;;;35.07;32.92
29941;BME280;16801;53.562;10.038;2023-07-08T15:00:56;101817.81;;;35.23;33.63
29941;BME280;16801;53.562;10.038;2023-07-08T15:04:18;101815.91;;;34.72;32.45
29941;BME280;16801;53.562;10.038;2023-07-08T15:07:40;101815.50;;;35.00;32.79
29941;BME280;16801;53.562;10.038;2023-07-08T15:11:01;101813.56;;;35.00;32.10
29941;BME280;16801;53.562;10.038;2023-07-08T15:14:25;101808.31;;;35.39;33.31
29941;BME280;16801;53.562;10.038;2023-07-08T15:17:48;101810.56;;;35.42;32.60
29941;BME280;16801;53.562;10.038;2023-07-08T15:21:10;101812.66;;;34.95;31.53
29941;BME280;16801;53.562;10.038;2023-07-08T15:24:32;101815.50;;;35.00;33.12
29941;BME280;16801;53.562;10.038;2023-07-08T15:27:54;101817.25;;;35.21;33.39
29941;BME280;16801;53.562;10.038;2023-07-08T15:31:18;101818.91;;;35.07;32.41
29941;BME280;16801;53.562;10.038;2023-07-08T15:34:41;101811.38;;;35.22;32.90
29941;BME280;16801;53.562;10.038;2023-07-08T15:38:02;101804.50;;;34.88;31.81
29941;BME280;16801;53.562;10.038;2023-07-08T15:41:25;101808.09;;;34.79;32.65
29941;BME280;16801;53.562;10.038;2023-07-08T15:44:47;101804.31;;;35.00;32.71
29941;BME280;16801;53.562;10.038;2023-07-08T15:48:15;101809.09;;;35.09;33.21
29941;BME280;16801;53.562;10.038;2023-07-08T15:51:37;101803.78;;;35.18;32.91
29941;BME280;16801;53.562;10.038;2023-07-08T15:54:58;101805.16;;;35.15;33.08
29941;BME280;16801;53.562;10.038;2023-07-08T15:58:25;101800.97;;;35.18;33.84
29941;BME280;16801;53.562;10.038;2023-07-08T16:01:47;101810.09;;;34.83;32.87
29941;BME280;16801;53.562;10.038;2023-07-08T16:05:09;101804.31;;;35.00;32.70
29941;BME280;16801;53.562;10.038;2023-07-08T16:08:32;101789.50;;;34.57;31.87
29941;BME280;16801;53.562;10.038;2023-07-08T16:11:52;101791.31;;;34.84;33.40
29941;BME280;16801;53.562;10.038;2023-07-08T16:15:14;101785.34;;;34.60;33.25
29941;BME280;16801;53.562;10.038;2023-07-08T16:18:36;101787.03;;;34.66;32.91
29941;BME280;16801;53.562;10.038;2023-07-08T16:21:57;101783.91;;;34.52;35.29
29941;BME280;16801;53.562;10.038;2023-07-08T16:25:28;101785.34;;;34.60;37.65
29941;BME280;16801;53.562;10.038;2023-07-08T16:28:50;101789.25;;;34.12;38.19
29941;BME280;16801;53.562;10.038;2023-07-08T16:32:13;101799.63;;;34.64;40.34
29941;BME280;16801;53.562;10.038;2023-07-08T16:35:36;101793.28;;;34.31;40.26
29941;BME280;16801;53.562;10.038;2023-07-08T16:38:57;101801.91;;;34.72;40.75
29941;BME280;16801;53.562;10.038;2023-07-08T16:42:20;101808.28;;;34.52;39.57
29941;BME280;16801;53.562;10.038;2023-07-08T16:45:41;101809.25;;;33.94;39.51
29941;BME280;16801;53.562;10.038;2023-07-08T16:49:02;101801.47;;;33.69;40.50
29941;BME280;16801;53.562;10.038;2023-07-08T16:52:22;101807.25;;;33.31;40.48
29941;BME280;16801;53.562;10.038;2023-07-08T16:55:43;101805.25;;;33.05;40.49
29941;BME280;16801;53.562;10.038;2023-07-08T16:59:06;101799.19;;;33.13;40.82
29941;BME280;16801;53.562;10.038;2023-07-08T17:02:27;101801.22;;;32.96;40.91
29941;BME280;16801;53.562;10.038;2023-07-08T17:05:49;101811.19;;;33.09;41.51
29941;BME280;16801;53.562;10.038;2023-07-08T17:09:11;101804.53;;;32.71;41.44
29941;BME280;16801;53.562;10.038;2023-07-08T17:12:32;101817.72;;;32.76;41.30
29941;BME280;16801;53.562;10.038;2023-07-08T17:15:54;101807.66;;;32.53;41.91
29941;BME280;16801;53.562;10.038;2023-07-08T17:19:14;101818.66;;;32.60;41.82
29941;BME280;16801;53.562;10.038;2023-07-08T17:22:35;101819.81;;;32.09;42.39
29941;BME280;16801;53.562;10.038;2023-07-08T17:25:56;101813.56;;;31.85;41.92
29941;BME280;16801;53.562;10.038;2023-07-08T17:29:17;101806.56;;;31.99;42.89